Bitflower — SBJE — position and weather

sailwx.info

Track history (hours):
 
Tides and Currents Weather Stations Pressure Air Temp Water Temp Dewpoint Dewpoint Depression Visibility Wind Speed Wind Dir Waves Ship Positions

Bitflower

Last reported at 2016-Apr-28 17:29 UTC. Time now 2016-Apr-30 05:17 UTC.
Position N 52°11' W 005°52'.

Length 116 m; draft 6.8 m.

Type: Ship. MMSI: 266009000.

Date/timePositionNaut miles runAvg speedWind from/ knotsBaromVisibWave heightAir tempDewpointWater temp
2016-Apr-28 17:29N 52°11' W 005°52'1415.6
2016-Apr-28 16:33N 52°26' W 005°48'103 4.4
2016-Apr-27 17:16N 54°08' W 005°27'913.3
2016-Apr-27 16:34N 54°16' W 005°21'1312.8
2016-Apr-27 15:33N 54°29' W 005°19'1312.8
2016-Apr-27 14:34N 54°41' W 005°27'1111.1
2016-Apr-27 13:33N 54°41' W 005°46'4 0.5
2016-Apr-27 05:33N 54°39' W 005°52'9 9.0
2016-Apr-27 04:33N 54°43' W 005°38'10 9.8
2016-Apr-27 03:34N 54°37' W 005°25'1211.6
2016-Apr-27 02:34N 54°26' W 005°19'1010.3
2016-Apr-27 01:34N 54°16' W 005°18'1410.6
2016-Apr-27 00:15N 54°02' W 005°23'251 8.9
2016-Apr-25 20:04N 49°55' W 004°14'1710.6
2016-Apr-25 18:27N 49°57' W 003°48'1011.1
2016-Apr-25 17:32N 49°58' W 003°32'1212.1
2016-Apr-25 16:34N 49°59' W 003°14'18211.3
2016-Apr-25 00:32N 50°55' E 001°18'1111.2
2016-Apr-24 23:33N 51°03' E 001°29'1313.1
2016-Apr-24 22:34N 51°12' E 001°44'1414.3
2016-Apr-24 21:33N 51°24' E 001°56'1414.0
2016-Apr-24 20:33N 51°35' E 002°11'6510.7
2016-Apr-24 14:29N 52°03' E 003°46'8 8.3
2016-Apr-24 13:34N 52°01' E 003°59'1212.1
2016-Apr-24 12:33N 51°55' E 004°15'2 1.5
2016-Apr-24 11:32N 51°53' E 004°16'0 0.0
2016-Apr-24 10:29N 51°53' E 004°16'0 0.0
2016-Apr-24 09:32N 51°53' E 004°16'0 0.0
2016-Apr-24 08:32N 51°53' E 004°16'0 0.0
2016-Apr-24 07:32N 51°53' E 004°16'0 0.0
2016-Apr-24 06:32N 51°53' E 004°16'0 0.0
2016-Apr-24 05:29N 51°53' E 004°16'0 0.0
2016-Apr-24 04:25N 51°53' E 004°16'0 0.0
2016-Apr-24 03:32N 51°53' E 004°16'0 0.0
2016-Apr-24 02:32N 51°53' E 004°16'0 0.0
2016-Apr-24 01:32N 51°53' E 004°16'0 0.0
2016-Apr-24 00:26N 51°53' E 004°16'0 0.0
2016-Apr-23 23:32N 51°53' E 004°16'0 0.0
2016-Apr-23 22:32N 51°53' E 004°16'0 0.0
2016-Apr-23 21:29N 51°53' E 004°16'0 0.1
2016-Apr-23 20:32N 51°53' E 004°16'0 0.0
2016-Apr-23 19:29N 51°53' E 004°16'0 0.0
2016-Apr-23 18:32N 51°53' E 004°16'0 0.0
2016-Apr-23 17:33N 51°53' E 004°16'1 0.9
2016-Apr-23 16:33N 51°53' E 004°18'8 7.5
2016-Apr-23 15:33N 51°58' E 004°08'10 9.8
2016-Apr-23 14:33N 52°01' E 003°53'9 8.5
2016-Apr-23 13:33N 52°08' E 003°46'3413.7
2016-Apr-23 11:04N 52°42' E 003°55'714.3
2016-Apr-23 10:33N 52°49' E 003°58'1413.4
2016-Apr-23 09:31N 53°01' E 004°08'6812.6
2016-Apr-23 04:06N 54°04' E 004°56'713.3
2016-Apr-23 03:32N 54°11' E 005°00'29112.1
2016-Apr-22 03:31N 57°47' E 010°49'1111.0
2016-Apr-22 02:33N 57°40' E 011°04'1212.1
2016-Apr-22 01:33N 57°32' E 011°21'1111.4
2016-Apr-22 00:33N 57°23' E 011°35'42 1.6
2016-Apr-20 22:03N 56°53' E 012°29'0 0.0
2016-Apr-20 21:33N 56°53' E 012°29'0 0.0
2016-Apr-20 20:33N 56°53' E 012°29'0 0.0
2016-Apr-20 19:33N 56°53' E 012°29'0 0.0
2016-Apr-20 18:33N 56°53' E 012°29'0 0.0
2016-Apr-20 17:33N 56°53' E 012°29'0 0.0
2016-Apr-20 16:33N 56°53' E 012°29'0 0.0
2016-Apr-20 15:33N 56°53' E 012°29'0 0.0
2016-Apr-20 14:33N 56°53' E 012°29'0 0.0
2016-Apr-20 13:33N 56°53' E 012°29'0 0.0
2016-Apr-20 12:33N 56°53' E 012°29'0 0.0
2016-Apr-20 11:33N 56°53' E 012°29'0 0.0
2016-Apr-20 10:33N 56°53' E 012°29'0 0.0
2016-Apr-20 09:32N 56°53' E 012°29'0 0.0
2016-Apr-20 08:32N 56°53' E 012°29'0 0.0
2016-Apr-20 07:26N 56°53' E 012°29'0 0.0
2016-Apr-20 06:32N 56°53' E 012°29'0 0.0
2016-Apr-20 05:32N 56°53' E 012°29'0 0.0
2016-Apr-20 04:32N 56°53' E 012°29'0 0.0
2016-Apr-20 03:32N 56°53' E 012°29'0 0.0
2016-Apr-20 02:32N 56°53' E 012°29'0 0.0
2016-Apr-20 01:32N 56°53' E 012°29'0 0.0
2016-Apr-20 00:32N 56°53' E 012°29'0 0.0
2016-Apr-19 23:32N 56°53' E 012°29'0 0.0
2016-Apr-19 22:32N 56°53' E 012°29'0 0.0
2016-Apr-19 21:32N 56°53' E 012°29'0 0.0
2016-Apr-19 20:32N 56°53' E 012°29'0 0.0
2016-Apr-19 19:32N 56°53' E 012°29'0 0.0
2016-Apr-19 18:32N 56°53' E 012°29'0 0.0
2016-Apr-19 17:32N 56°53' E 012°29'0 0.0
2016-Apr-19 16:32N 56°53' E 012°29'0 0.0
2016-Apr-19 15:32N 56°53' E 012°29'0 0.0
2016-Apr-19 14:20N 56°53' E 012°29'0 0.0
2016-Apr-19 13:32N 56°53' E 012°29'0 0.1
2016-Apr-19 12:32N 56°53' E 012°29'0 0.0
2016-Apr-19 11:32N 56°53' E 012°29'0 0.0
2016-Apr-19 10:32N 56°53' E 012°29'0 0.0
2016-Apr-19 09:32N 56°53' E 012°29'0 0.0
2016-Apr-19 08:20N 56°53' E 012°29'0 0.0
2016-Apr-19 07:26N 56°53' E 012°29'0 0.0
2016-Apr-19 06:32N 56°53' E 012°29'0 0.0
2016-Apr-19 05:32N 56°53' E 012°29'0 0.0
2016-Apr-19 04:32N 56°53' E 012°29'0 0.0
2016-Apr-19 03:32N 56°53' E 012°29'0 0.0
2016-Apr-19 02:32N 56°53' E 012°29'0 0.0
2016-Apr-19 01:32N 56°53' E 012°29'0 0.0
2016-Apr-19 00:32N 56°53' E 012°29'0 0.0
2016-Apr-18 23:32N 56°53' E 012°29'0 0.0
2016-Apr-18 22:32N 56°53' E 012°29'0 0.0
2016-Apr-18 21:32N 56°53' E 012°29'0 0.0
2016-Apr-18 20:32N 56°53' E 012°29'0 0.0
2016-Apr-18 19:32N 56°53' E 012°29'0 0.0
2016-Apr-18 18:32N 56°53' E 012°29'0 0.0
2016-Apr-18 17:32N 56°53' E 012°29'  
Track history (hours):
 
Tides and Currents Weather Stations Pressure Air Temp Water Temp Dewpoint Dewpoint Depression Visibility Wind Speed Wind Dir Waves Ship Positions

Bitflower

Last reported at 2016-Apr-28 17:29 UTC. Time now 2016-Apr-30 05:17 UTC.
Position N 52°11' W 005°52'.

Length 116 m; draft 6.8 m.

Type: Ship. MMSI: 266009000.

Date/timePositionNaut miles runAvg speedWind from/ knotsBaromVisibWave heightAir tempDewpointWater temp
2016-Apr-28 17:29N 52°11' W 005°52'1415.6
2016-Apr-28 16:33N 52°26' W 005°48'103 4.4
2016-Apr-27 17:16N 54°08' W 005°27'913.3
2016-Apr-27 16:34N 54°16' W 005°21'1312.8
2016-Apr-27 15:33N 54°29' W 005°19'1312.8
2016-Apr-27 14:34N 54°41' W 005°27'1111.1
2016-Apr-27 13:33N 54°41' W 005°46'4 0.5
2016-Apr-27 05:33N 54°39' W 005°52'9 9.0
2016-Apr-27 04:33N 54°43' W 005°38'10 9.8
2016-Apr-27 03:34N 54°37' W 005°25'1211.6
2016-Apr-27 02:34N 54°26' W 005°19'1010.3
2016-Apr-27 01:34N 54°16' W 005°18'1410.6
2016-Apr-27 00:15N 54°02' W 005°23'251 8.9
2016-Apr-25 20:04N 49°55' W 004°14'1710.6
2016-Apr-25 18:27N 49°57' W 003°48'1011.1
2016-Apr-25 17:32N 49°58' W 003°32'1212.1
2016-Apr-25 16:34N 49°59' W 003°14'18211.3
2016-Apr-25 00:32N 50°55' E 001°18'1111.2
2016-Apr-24 23:33N 51°03' E 001°29'1313.1
2016-Apr-24 22:34N 51°12' E 001°44'1414.3
2016-Apr-24 21:33N 51°24' E 001°56'1414.0
2016-Apr-24 20:33N 51°35' E 002°11'6510.7
2016-Apr-24 14:29N 52°03' E 003°46'8 8.3
2016-Apr-24 13:34N 52°01' E 003°59'1212.1
2016-Apr-24 12:33N 51°55' E 004°15'2 1.5
2016-Apr-24 11:32N 51°53' E 004°16'0 0.0
2016-Apr-24 10:29N 51°53' E 004°16'0 0.0
2016-Apr-24 09:32N 51°53' E 004°16'0 0.0
2016-Apr-24 08:32N 51°53' E 004°16'0 0.0
2016-Apr-24 07:32N 51°53' E 004°16'0 0.0
2016-Apr-24 06:32N 51°53' E 004°16'0 0.0
2016-Apr-24 05:29N 51°53' E 004°16'0 0.0
2016-Apr-24 04:25N 51°53' E 004°16'0 0.0
2016-Apr-24 03:32N 51°53' E 004°16'0 0.0
2016-Apr-24 02:32N 51°53' E 004°16'0 0.0
2016-Apr-24 01:32N 51°53' E 004°16'0 0.0
2016-Apr-24 00:26N 51°53' E 004°16'0 0.0
2016-Apr-23 23:32N 51°53' E 004°16'0 0.0
2016-Apr-23 22:32N 51°53' E 004°16'0 0.0
2016-Apr-23 21:29N 51°53' E 004°16'0 0.1
2016-Apr-23 20:32N 51°53' E 004°16'0 0.0
2016-Apr-23 19:29N 51°53' E 004°16'0 0.0
2016-Apr-23 18:32N 51°53' E 004°16'0 0.0
2016-Apr-23 17:33N 51°53' E 004°16'1 0.9
2016-Apr-23 16:33N 51°53' E 004°18'8 7.5
2016-Apr-23 15:33N 51°58' E 004°08'10 9.8
2016-Apr-23 14:33N 52°01' E 003°53'9 8.5
2016-Apr-23 13:33N 52°08' E 003°46'3413.7
2016-Apr-23 11:04N 52°42' E 003°55'714.3
2016-Apr-23 10:33N 52°49' E 003°58'1413.4
2016-Apr-23 09:31N 53°01' E 004°08'6812.6
2016-Apr-23 04:06N 54°04' E 004°56'713.3
2016-Apr-23 03:32N 54°11' E 005°00'29112.1
2016-Apr-22 03:31N 57°47' E 010°49'1111.0
2016-Apr-22 02:33N 57°40' E 011°04'1212.1
2016-Apr-22 01:33N 57°32' E 011°21'1111.4
2016-Apr-22 00:33N 57°23' E 011°35'42 1.6
2016-Apr-20 22:03N 56°53' E 012°29'0 0.0
2016-Apr-20 21:33N 56°53' E 012°29'0 0.0
2016-Apr-20 20:33N 56°53' E 012°29'0 0.0
2016-Apr-20 19:33N 56°53' E 012°29'0 0.0
2016-Apr-20 18:33N 56°53' E 012°29'0 0.0
2016-Apr-20 17:33N 56°53' E 012°29'0 0.0
2016-Apr-20 16:33N 56°53' E 012°29'0 0.0
2016-Apr-20 15:33N 56°53' E 012°29'0 0.0
2016-Apr-20 14:33N 56°53' E 012°29'0 0.0
2016-Apr-20 13:33N 56°53' E 012°29'0 0.0
2016-Apr-20 12:33N 56°53' E 012°29'0 0.0
2016-Apr-20 11:33N 56°53' E 012°29'0 0.0
2016-Apr-20 10:33N 56°53' E 012°29'0 0.0
2016-Apr-20 09:32N 56°53' E 012°29'0 0.0
2016-Apr-20 08:32N 56°53' E 012°29'0 0.0
2016-Apr-20 07:26N 56°53' E 012°29'0 0.0
2016-Apr-20 06:32N 56°53' E 012°29'0 0.0
2016-Apr-20 05:32N 56°53' E 012°29'0 0.0
2016-Apr-20 04:32N 56°53' E 012°29'0 0.0
2016-Apr-20 03:32N 56°53' E 012°29'0 0.0
2016-Apr-20 02:32N 56°53' E 012°29'0 0.0
2016-Apr-20 01:32N 56°53' E 012°29'0 0.0
2016-Apr-20 00:32N 56°53' E 012°29'0 0.0
2016-Apr-19 23:32N 56°53' E 012°29'0 0.0
2016-Apr-19 22:32N 56°53' E 012°29'0 0.0
2016-Apr-19 21:32N 56°53' E 012°29'0 0.0
2016-Apr-19 20:32N 56°53' E 012°29'0 0.0
2016-Apr-19 19:32N 56°53' E 012°29'0 0.0
2016-Apr-19 18:32N 56°53' E 012°29'0 0.0
2016-Apr-19 17:32N 56°53' E 012°29'0 0.0
2016-Apr-19 16:32N 56°53' E 012°29'0 0.0
2016-Apr-19 15:32N 56°53' E 012°29'0 0.0
2016-Apr-19 14:20N 56°53' E 012°29'0 0.0
2016-Apr-19 13:32N 56°53' E 012°29'0 0.1
2016-Apr-19 12:32N 56°53' E 012°29'0 0.0
2016-Apr-19 11:32N 56°53' E 012°29'0 0.0
2016-Apr-19 10:32N 56°53' E 012°29'0 0.0
2016-Apr-19 09:32N 56°53' E 012°29'0 0.0
2016-Apr-19 08:20N 56°53' E 012°29'0 0.0
2016-Apr-19 07:26N 56°53' E 012°29'0 0.0
2016-Apr-19 06:32N 56°53' E 012°29'0 0.0
2016-Apr-19 05:32N 56°53' E 012°29'0 0.0
2016-Apr-19 04:32N 56°53' E 012°29'0 0.0
2016-Apr-19 03:32N 56°53' E 012°29'0 0.0
2016-Apr-19 02:32N 56°53' E 012°29'0 0.0
2016-Apr-19 01:32N 56°53' E 012°29'0 0.0
2016-Apr-19 00:32N 56°53' E 012°29'0 0.0
2016-Apr-18 23:32N 56°53' E 012°29'0 0.0
2016-Apr-18 22:32N 56°53' E 012°29'0 0.0
2016-Apr-18 21:32N 56°53' E 012°29'0 0.0
2016-Apr-18 20:32N 56°53' E 012°29'0 0.0
2016-Apr-18 19:32N 56°53' E 012°29'0 0.0
2016-Apr-18 18:32N 56°53' E 012°29'0 0.0
2016-Apr-18 17:32N 56°53' E 012°29'  

Dump ship's entire track history